sensor_id;sensor_type;location;lat;lon;timestamp;P1;durP1;ratioP1;P2;durP2;ratioP2
20229;SDS011;12195;55.790;37.572;2022-07-24T00:01:24;19.02;;;6.80;;
20229;SDS011;12195;55.790;37.572;2022-07-24T00:03:56;14.47;;;6.90;;
20229;SDS011;12195;55.790;37.572;2022-07-24T00:06:28;16.00;;;7.28;;
20229;SDS011;12195;55.790;37.572;2022-07-24T00:09:01;18.10;;;7.05;;
20229;SDS011;12195;55.790;37.572;2022-07-24T00:11:34;14.13;;;6.42;;
20229;SDS011;12195;55.790;37.572;2022-07-24T00:14:07;21.90;;;6.72;;
20229;SDS011;12195;55.790;37.572;2022-07-24T00:16:39;15.80;;;7.35;;
20229;SDS011;12195;55.790;37.572;2022-07-24T00:19:12;17.87;;;7.33;;
20229;SDS011;12195;55.790;37.572;2022-07-24T00:21:44;18.30;;;7.35;;
20229;SDS011;12195;55.790;37.572;2022-07-24T00:24:16;14.43;;;7.35;;
20229;SDS011;12195;55.790;37.572;2022-07-24T00:26:48;16.95;;;7.30;;
20229;SDS011;12195;55.790;37.572;2022-07-24T00:29:20;12.43;;;7.53;;
20229;SDS011;12195;55.790;37.572;2022-07-24T00:31:52;17.90;;;7.37;;
20229;SDS011;12195;55.790;37.572;2022-07-24T00:34:24;14.13;;;7.33;;
20229;SDS011;12195;55.790;37.572;2022-07-24T00:36:57;19.80;;;7.75;;
20229;SDS011;12195;55.790;37.572;2022-07-24T00:39:29;13.20;;;7.87;;
20229;SDS011;12195;55.790;37.572;2022-07-24T00:42:01;15.78;;;7.37;;
20229;SDS011;12195;55.790;37.572;2022-07-24T00:44:33;18.55;;;7.85;;
20229;SDS011;12195;55.790;37.572;2022-07-24T00:47:06;15.53;;;7.45;;
20229;SDS011;12195;55.790;37.572;2022-07-24T00:49:38;14.93;;;7.47;;
20229;SDS011;12195;55.790;37.572;2022-07-24T00:52:10;12.65;;;7.20;;
20229;SDS011;12195;55.790;37.572;2022-07-24T00:54:43;15.00;;;6.95;;
20229;SDS011;12195;55.790;37.572;2022-07-24T00:57:15;18.00;;;7.50;;
20229;SDS011;12195;55.790;37.572;2022-07-24T00:59:47;11.68;;;6.87;;
20229;SDS011;12195;55.790;37.572;2022-07-24T01:02:19;13.78;;;6.85;;
20229;SDS011;12195;55.790;37.572;2022-07-24T01:04:51;13.85;;;7.47;;
20229;SDS011;12195;55.790;37.572;2022-07-24T01:07:24;16.75;;;7.92;;
20229;SDS011;12195;55.790;37.572;2022-07-24T01:09:56;12.95;;;7.40;;
20229;SDS011;12195;55.790;37.572;2022-07-24T01:12:30;18.02;;;7.60;;
20229;SDS011;12195;55.790;37.572;2022-07-24T01:15:04;15.25;;;6.80;;
20229;SDS011;12195;55.790;37.572;2022-07-24T01:17:39;11.75;;;7.30;;
20229;SDS011;12195;55.790;37.572;2022-07-24T01:22:42;17.20;;;7.33;;
20229;SDS011;12195;55.790;37.572;2022-07-24T01:25:14;16.75;;;7.35;;
20229;SDS011;12195;55.790;37.572;2022-07-24T01:27:47;11.22;;;6.65;;
20229;SDS011;12195;55.790;37.572;2022-07-24T01:30:19;15.88;;;7.12;;
20229;SDS011;12195;55.790;37.572;2022-07-24T01:32:51;16.10;;;7.22;;
20229;SDS011;12195;55.790;37.572;2022-07-24T01:35:24;15.18;;;7.30;;
20229;SDS011;12195;55.790;37.572;2022-07-24T01:37:57;11.90;;;7.40;;
20229;SDS011;12195;55.790;37.572;2022-07-24T01:40:29;14.73;;;6.87;;
20229;SDS011;12195;55.790;37.572;2022-07-24T01:43:01;13.05;;;7.92;;
20229;SDS011;12195;55.790;37.572;2022-07-24T01:45:34;13.78;;;8.23;;
20229;SDS011;12195;55.790;37.572;2022-07-24T01:48:06;18.10;;;9.80;;
20229;SDS011;12195;55.790;37.572;2022-07-24T01:50:38;22.95;;;9.90;;
20229;SDS011;12195;55.790;37.572;2022-07-24T01:53:10;15.85;;;9.60;;
20229;SDS011;12195;55.790;37.572;2022-07-24T01:55:42;14.68;;;9.10;;
20229;SDS011;12195;55.790;37.572;2022-07-24T01:58:14;16.52;;;9.33;;
20229;SDS011;12195;55.790;37.572;2022-07-24T02:00:47;16.65;;;9.03;;
20229;SDS011;12195;55.790;37.572;2022-07-24T02:03:19;18.50;;;8.83;;
20229;SDS011;12195;55.790;37.572;2022-07-24T02:05:52;14.98;;;9.03;;
20229;SDS011;12195;55.790;37.572;2022-07-24T02:08:24;12.18;;;8.78;;
20229;SDS011;12195;55.790;37.572;2022-07-24T02:10:56;17.00;;;8.50;;
20229;SDS011;12195;55.790;37.572;2022-07-24T02:13:28;20.02;;;8.38;;
20229;SDS011;12195;55.790;37.572;2022-07-24T02:16:00;13.95;;;8.20;;
20229;SDS011;12195;55.790;37.572;2022-07-24T02:18:33;13.68;;;7.75;;
20229;SDS011;12195;55.790;37.572;2022-07-24T02:21:05;15.60;;;8.30;;
20229;SDS011;12195;55.790;37.572;2022-07-24T02:23:37;14.18;;;8.50;;
20229;SDS011;12195;55.790;37.572;2022-07-24T02:26:09;13.75;;;8.43;;
20229;SDS011;12195;55.790;37.572;2022-07-24T02:28:41;22.20;;;14.43;;
20229;SDS011;12195;55.790;37.572;2022-07-24T02:31:13;17.35;;;11.97;;
20229;SDS011;12195;55.790;37.572;2022-07-24T02:33:45;15.78;;;7.92;;
20229;SDS011;12195;55.790;37.572;2022-07-24T02:36:17;10.40;;;7.55;;
20229;SDS011;12195;55.790;37.572;2022-07-24T02:38:49;12.85;;;7.10;;
20229;SDS011;12195;55.790;37.572;2022-07-24T02:41:22;12.53;;;7.60;;
20229;SDS011;12195;55.790;37.572;2022-07-24T02:43:54;16.17;;;7.87;;
20229;SDS011;12195;55.790;37.572;2022-07-24T02:46:27;17.42;;;7.40;;
20229;SDS011;12195;55.790;37.572;2022-07-24T02:48:59;18.48;;;7.55;;
20229;SDS011;12195;55.790;37.572;2022-07-24T02:51:32;13.90;;;7.47;;
20229;SDS011;12195;55.790;37.572;2022-07-24T02:54:04;11.63;;;7.17;;
20229;SDS011;12195;55.790;37.572;2022-07-24T02:56:36;9.90;;;6.12;;
20229;SDS011;12195;55.790;37.572;2022-07-24T02:59:08;11.65;;;6.33;;
20229;SDS011;12195;55.790;37.572;2022-07-24T03:01:40;15.55;;;6.42;;
20229;SDS011;12195;55.790;37.572;2022-07-24T03:04:12;12.25;;;7.78;;
20229;SDS011;12195;55.790;37.572;2022-07-24T03:06:45;14.03;;;7.40;;
20229;SDS011;12195;55.790;37.572;2022-07-24T03:09:17;9.05;;;6.28;;
20229;SDS011;12195;55.790;37.572;2022-07-24T03:11:49;10.32;;;6.40;;
20229;SDS011;12195;55.790;37.572;2022-07-24T03:14:21;10.68;;;6.28;;
20229;SDS011;12195;55.790;37.572;2022-07-24T03:16:53;10.08;;;6.33;;
20229;SDS011;12195;55.790;37.572;2022-07-24T03:19:26;12.75;;;6.03;;
20229;SDS011;12195;55.790;37.572;2022-07-24T03:21:58;12.25;;;6.65;;
20229;SDS011;12195;55.790;37.572;2022-07-24T03:24:30;11.50;;;6.35;;
20229;SDS011;12195;55.790;37.572;2022-07-24T03:27:02;12.00;;;6.10;;
20229;SDS011;12195;55.790;37.572;2022-07-24T03:29:34;8.95;;;6.08;;
20229;SDS011;12195;55.790;37.572;2022-07-24T03:32:07;13.20;;;5.97;;
20229;SDS011;12195;55.790;37.572;2022-07-24T03:34:39;10.00;;;5.62;;
20229;SDS011;12195;55.790;37.572;2022-07-24T03:37:12;8.93;;;5.95;;
20229;SDS011;12195;55.790;37.572;2022-07-24T03:39:44;10.00;;;5.95;;
20229;SDS011;12195;55.790;37.572;2022-07-24T03:42:16;14.03;;;5.78;;
20229;SDS011;12195;55.790;37.572;2022-07-24T03:44:48;8.80;;;5.35;;
20229;SDS011;12195;55.790;37.572;2022-07-24T03:47:21;7.42;;;4.85;;
20229;SDS011;12195;55.790;37.572;2022-07-24T03:49:53;10.93;;;5.33;;
20229;SDS011;12195;55.790;37.572;2022-07-24T03:52:25;8.08;;;5.53;;
20229;SDS011;12195;55.790;37.572;2022-07-24T03:54:57;8.33;;;5.65;;
20229;SDS011;12195;55.790;37.572;2022-07-24T03:57:30;8.85;;;5.58;;
20229;SDS011;12195;55.790;37.572;2022-07-24T04:00:03;18.15;;;6.33;;
20229;SDS011;12195;55.790;37.572;2022-07-24T04:02:37;8.50;;;5.40;;
20229;SDS011;12195;55.790;37.572;2022-07-24T04:05:10;9.48;;;5.35;;
20229;SDS011;12195;55.790;37.572;2022-07-24T04:07:43;7.45;;;5.05;;
20229;SDS011;12195;55.790;37.572;2022-07-24T04:10:15;7.80;;;5.17;;
20229;SDS011;12195;55.790;37.572;2022-07-24T04:12:47;8.43;;;5.30;;
20229;SDS011;12195;55.790;37.572;2022-07-24T04:15:19;7.42;;;5.20;;
20229;SDS011;12195;55.790;37.572;2022-07-24T04:17:51;10.20;;;5.50;;
20229;SDS011;12195;55.790;37.572;2022-07-24T04:20:23;8.35;;;5.33;;
20229;SDS011;12195;55.790;37.572;2022-07-24T04:22:56;9.58;;;5.45;;
20229;SDS011;12195;55.790;37.572;2022-07-24T04:25:28;6.92;;;5.03;;
20229;SDS011;12195;55.790;37.572;2022-07-24T04:28:00;8.58;;;5.03;;
20229;SDS011;12195;55.790;37.572;2022-07-24T04:30:33;6.28;;;4.47;;
20229;SDS011;12195;55.790;37.572;2022-07-24T04:33:05;9.03;;;4.83;;
20229;SDS011;12195;55.790;37.572;2022-07-24T04:35:37;8.55;;;4.67;;
20229;SDS011;12195;55.790;37.572;2022-07-24T04:38:09;16.87;;;5.33;;
20229;SDS011;12195;55.790;37.572;2022-07-24T04:40:42;7.05;;;4.62;;
20229;SDS011;12195;55.790;37.572;2022-07-24T04:43:14;8.23;;;4.10;;
20229;SDS011;12195;55.790;37.572;2022-07-24T04:45:46;7.22;;;4.45;;
20229;SDS011;12195;55.790;37.572;2022-07-24T04:48:18;9.30;;;4.20;;
20229;SDS011;12195;55.790;37.572;2022-07-24T04:50:50;8.98;;;3.90;;
20229;SDS011;12195;55.790;37.572;2022-07-24T04:53:23;8.50;;;3.50;;
20229;SDS011;12195;55.790;37.572;2022-07-24T04:55:55;4.80;;;3.10;;
20229;SDS011;12195;55.790;37.572;2022-07-24T04:58:28;6.55;;;3.45;;
20229;SDS011;12195;55.790;37.572;2022-07-24T05:01:01;5.03;;;3.50;;
20229;SDS011;12195;55.790;37.572;2022-07-24T05:03:33;7.65;;;3.17;;
20229;SDS011;12195;55.790;37.572;2022-07-24T05:06:05;5.20;;;3.30;;
20229;SDS011;12195;55.790;37.572;2022-07-24T05:08:38;4.37;;;2.95;;
20229;SDS011;12195;55.790;37.572;2022-07-24T05:11:10;5.00;;;2.77;;
20229;SDS011;12195;55.790;37.572;2022-07-24T05:13:42;5.25;;;2.67;;
20229;SDS011;12195;55.790;37.572;2022-07-24T05:16:14;5.87;;;3.40;;
20229;SDS011;12195;55.790;37.572;2022-07-24T05:18:47;3.00;;;2.70;;
20229;SDS011;12195;55.790;37.572;2022-07-24T05:21:19;4.17;;;2.80;;
20229;SDS011;12195;55.790;37.572;2022-07-24T05:23:51;3.90;;;2.60;;
20229;SDS011;12195;55.790;37.572;2022-07-24T05:26:23;5.03;;;3.12;;
20229;SDS011;12195;55.790;37.572;2022-07-24T05:28:55;10.03;;;2.77;;
20229;SDS011;12195;55.790;37.572;2022-07-24T05:31:29;6.15;;;2.80;;
20229;SDS011;12195;55.790;37.572;2022-07-24T05:34:01;3.05;;;2.30;;
20229;SDS011;12195;55.790;37.572;2022-07-24T05:36:33;4.75;;;2.25;;
20229;SDS011;12195;55.790;37.572;2022-07-24T05:39:05;7.10;;;3.17;;
20229;SDS011;12195;55.790;37.572;2022-07-24T05:41:38;8.30;;;3.27;;
20229;SDS011;12195;55.790;37.572;2022-07-24T05:44:11;6.80;;;2.92;;
20229;SDS011;12195;55.790;37.572;2022-07-24T05:46:43;6.70;;;2.80;;
20229;SDS011;12195;55.790;37.572;2022-07-24T05:49:15;4.80;;;2.80;;
20229;SDS011;12195;55.790;37.572;2022-07-24T05:51:48;8.00;;;2.35;;
20229;SDS011;12195;55.790;37.572;2022-07-24T05:54:20;2.83;;;2.45;;
20229;SDS011;12195;55.790;37.572;2022-07-24T05:56:52;4.92;;;2.80;;
20229;SDS011;12195;55.790;37.572;2022-07-24T05:59:25;5.97;;;3.12;;
20229;SDS011;12195;55.790;37.572;2022-07-24T06:01:57;3.92;;;2.60;;
20229;SDS011;12195;55.790;37.572;2022-07-24T06:04:31;3.62;;;2.85;;
20229;SDS011;12195;55.790;37.572;2022-07-24T06:07:05;3.53;;;2.20;;
20229;SDS011;12195;55.790;37.572;2022-07-24T06:09:37;3.70;;;2.67;;
20229;SDS011;12195;55.790;37.572;2022-07-24T06:12:09;5.05;;;2.33;;
20229;SDS011;12195;55.790;37.572;2022-07-24T06:14:41;3.62;;;2.45;;
20229;SDS011;12195;55.790;37.572;2022-07-24T06:17:14;3.70;;;2.70;;
20229;SDS011;12195;55.790;37.572;2022-07-24T06:19:46;4.17;;;2.50;;
20229;SDS011;12195;55.790;37.572;2022-07-24T06:22:18;5.50;;;2.75;;
20229;SDS011;12195;55.790;37.572;2022-07-24T06:24:50;5.37;;;2.50;;
20229;SDS011;12195;55.790;37.572;2022-07-24T06:27:22;4.97;;;2.40;;
20229;SDS011;12195;55.790;37.572;2022-07-24T06:29:54;5.17;;;2.27;;
20229;SDS011;12195;55.790;37.572;2022-07-24T06:32:26;4.20;;;1.72;;
20229;SDS011;12195;55.790;37.572;2022-07-24T06:34:58;2.60;;;1.67;;
20229;SDS011;12195;55.790;37.572;2022-07-24T06:37:30;3.27;;;1.77;;
20229;SDS011;12195;55.790;37.572;2022-07-24T06:40:02;3.30;;;1.87;;
20229;SDS011;12195;55.790;37.572;2022-07-24T06:42:36;3.40;;;1.85;;
20229;SDS011;12195;55.790;37.572;2022-07-24T06:45:09;2.00;;;1.80;;
20229;SDS011;12195;55.790;37.572;2022-07-24T06:47:42;3.70;;;2.17;;
20229;SDS011;12195;55.790;37.572;2022-07-24T06:50:14;2.27;;;1.82;;
20229;SDS011;12195;55.790;37.572;2022-07-24T06:52:46;1.87;;;1.50;;
20229;SDS011;12195;55.790;37.572;2022-07-24T06:55:18;8.85;;;2.10;;
20229;SDS011;12195;55.790;37.572;2022-07-24T06:57:50;3.95;;;1.77;;
20229;SDS011;12195;55.790;37.572;2022-07-24T07:00:23;6.92;;;2.40;;
20229;SDS011;12195;55.790;37.572;2022-07-24T07:02:55;3.72;;;1.75;;
20229;SDS011;12195;55.790;37.572;2022-07-24T07:05:27;3.77;;;2.10;;
20229;SDS011;12195;55.790;37.572;2022-07-24T07:07:59;2.30;;;1.47;;
20229;SDS011;12195;55.790;37.572;2022-07-24T07:10:31;2.40;;;1.25;;
20229;SDS011;12195;55.790;37.572;2022-07-24T07:13:03;1.85;;;1.30;;
20229;SDS011;12195;55.790;37.572;2022-07-24T07:15:35;2.08;;;1.37;;
20229;SDS011;12195;55.790;37.572;2022-07-24T07:18:07;2.80;;;1.98;;
20229;SDS011;12195;55.790;37.572;2022-07-24T07:20:39;2.20;;;1.50;;
20229;SDS011;12195;55.790;37.572;2022-07-24T07:23:12;1.30;;;1.20;;
20229;SDS011;12195;55.790;37.572;2022-07-24T07:25:44;1.85;;;1.20;;
20229;SDS011;12195;55.790;37.572;2022-07-24T07:28:16;5.05;;;1.65;;
20229;SDS011;12195;55.790;37.572;2022-07-24T07:30:48;1.85;;;1.20;;
20229;SDS011;12195;55.790;37.572;2022-07-24T07:33:21;3.30;;;1.30;;
20229;SDS011;12195;55.790;37.572;2022-07-24T07:35:53;2.65;;;1.40;;
20229;SDS011;12195;55.790;37.572;2022-07-24T07:38:25;1.77;;;1.60;;
20229;SDS011;12195;55.790;37.572;2022-07-24T07:40:58;6.60;;;2.02;;
20229;SDS011;12195;55.790;37.572;2022-07-24T07:43:30;3.87;;;2.00;;
20229;SDS011;12195;55.790;37.572;2022-07-24T07:46:02;2.00;;;1.50;;
20229;SDS011;12195;55.790;37.572;2022-07-24T07:48:35;6.65;;;2.30;;
20229;SDS011;12195;55.790;37.572;2022-07-24T07:51:08;2.37;;;1.72;;
20229;SDS011;12195;55.790;37.572;2022-07-24T07:53:40;1.80;;;1.70;;
20229;SDS011;12195;55.790;37.572;2022-07-24T07:56:12;2.83;;;1.60;;
20229;SDS011;12195;55.790;37.572;2022-07-24T07:58:44;2.00;;;1.75;;
20229;SDS011;12195;55.790;37.572;2022-07-24T08:01:16;5.62;;;2.05;;
20229;SDS011;12195;55.790;37.572;2022-07-24T08:03:48;3.08;;;1.80;;
20229;SDS011;12195;55.790;37.572;2022-07-24T08:06:20;2.35;;;1.70;;
20229;SDS011;12195;55.790;37.572;2022-07-24T08:08:54;7.03;;;2.20;;
20229;SDS011;12195;55.790;37.572;2022-07-24T08:11:28;1.57;;;1.47;;
20229;SDS011;12195;55.790;37.572;2022-07-24T08:14:00;5.22;;;2.50;;
20229;SDS011;12195;55.790;37.572;2022-07-24T08:16:32;6.33;;;2.58;;
20229;SDS011;12195;55.790;37.572;2022-07-24T08:19:04;5.05;;;2.10;;
20229;SDS011;12195;55.790;37.572;2022-07-24T08:21:37;4.50;;;2.10;;
20229;SDS011;12195;55.790;37.572;2022-07-24T08:24:09;7.28;;;2.20;;
20229;SDS011;12195;55.790;37.572;2022-07-24T08:26:41;4.58;;;1.90;;
20229;SDS011;12195;55.790;37.572;2022-07-24T08:29:13;6.33;;;2.30;;
20229;SDS011;12195;55.790;37.572;2022-07-24T08:31:45;2.70;;;2.40;;
20229;SDS011;12195;55.790;37.572;2022-07-24T08:34:17;4.97;;;2.33;;
20229;SDS011;12195;55.790;37.572;2022-07-24T08:36:50;2.35;;;1.62;;
20229;SDS011;12195;55.790;37.572;2022-07-24T08:39:22;3.52;;;1.87;;
20229;SDS011;12195;55.790;37.572;2022-07-24T08:41:55;3.02;;;1.95;;
20229;SDS011;12195;55.790;37.572;2022-07-24T08:44:27;3.62;;;1.80;;
20229;SDS011;12195;55.790;37.572;2022-07-24T08:46:59;2.87;;;1.90;;
20229;SDS011;12195;55.790;37.572;2022-07-24T08:49:33;2.70;;;1.57;;
20229;SDS011;12195;55.790;37.572;2022-07-24T08:52:06;2.10;;;1.90;;
20229;SDS011;12195;55.790;37.572;2022-07-24T08:54:39;8.20;;;2.52;;
20229;SDS011;12195;55.790;37.572;2022-07-24T08:57:11;2.37;;;1.70;;
20229;SDS011;12195;55.790;37.572;2022-07-24T08:59:43;4.72;;;1.92;;
20229;SDS011;12195;55.790;37.572;2022-07-24T09:02:15;3.37;;;1.90;;
20229;SDS011;12195;55.790;37.572;2022-07-24T09:04:48;3.52;;;1.95;;
20229;SDS011;12195;55.790;37.572;2022-07-24T09:07:23;2.30;;;2.10;;
20229;SDS011;12195;55.790;37.572;2022-07-24T09:10:00;5.13;;;1.90;;
20229;SDS011;12195;55.790;37.572;2022-07-24T09:12:35;4.03;;;2.20;;
20229;SDS011;12195;55.790;37.572;2022-07-24T09:15:11;3.45;;;2.05;;
20229;SDS011;12195;55.790;37.572;2022-07-24T09:17:59;2.77;;;1.65;;
20229;SDS011;12195;55.790;37.572;2022-07-24T09:20:29;8.53;;;2.70;;
20229;SDS011;12195;55.790;37.572;2022-07-24T09:23:01;4.15;;;2.20;;
20229;SDS011;12195;55.790;37.572;2022-07-24T09:25:35;7.47;;;2.67;;
20229;SDS011;12195;55.790;37.572;2022-07-24T09:28:08;4.33;;;2.20;;
20229;SDS011;12195;55.790;37.572;2022-07-24T09:30:42;6.65;;;2.52;;
20229;SDS011;12195;55.790;37.572;2022-07-24T09:35:50;7.45;;;2.70;;
20229;SDS011;12195;55.790;37.572;2022-07-24T09:38:25;4.35;;;2.30;;
20229;SDS011;12195;55.790;37.572;2022-07-24T09:40:58;3.12;;;2.33;;
20229;SDS011;12195;55.790;37.572;2022-07-24T09:43:31;3.85;;;2.15;;
20229;SDS011;12195;55.790;37.572;2022-07-24T09:48:51;4.25;;;1.77;;
20229;SDS011;12195;55.790;37.572;2022-07-24T09:51:27;8.98;;;2.83;;
20229;SDS011;12195;55.790;37.572;2022-07-24T09:54:00;3.10;;;2.00;;
20229;SDS011;12195;55.790;37.572;2022-07-24T09:56:34;2.83;;;2.35;;
20229;SDS011;12195;55.790;37.572;2022-07-24T09:59:07;5.45;;;2.10;;
20229;SDS011;12195;55.790;37.572;2022-07-24T10:01:40;2.03;;;1.77;;
20229;SDS011;12195;55.790;37.572;2022-07-24T10:04:14;5.58;;;2.08;;
20229;SDS011;12195;55.790;37.572;2022-07-24T10:06:50;2.75;;;1.90;;
20229;SDS011;12195;55.790;37.572;2022-07-24T10:09:25;7.33;;;2.30;;
20229;SDS011;12195;55.790;37.572;2022-07-24T10:12:00;8.43;;;2.72;;
20229;SDS011;12195;55.790;37.572;2022-07-24T10:14:37;9.85;;;2.62;;
20229;SDS011;12195;55.790;37.572;2022-07-24T10:17:11;15.88;;;2.83;;
20229;SDS011;12195;55.790;37.572;2022-07-24T10:19:47;1.87;;;1.77;;
20229;SDS011;12195;55.790;37.572;2022-07-24T10:22:22;5.90;;;2.10;;
20229;SDS011;12195;55.790;37.572;2022-07-24T10:24:58;3.77;;;2.08;;
20229;SDS011;12195;55.790;37.572;2022-07-24T10:27:43;2.83;;;2.10;;
20229;SDS011;12195;55.790;37.572;2022-07-24T10:30:18;4.97;;;2.17;;
20229;SDS011;12195;55.790;37.572;2022-07-24T10:32:53;2.90;;;1.90;;
20229;SDS011;12195;55.790;37.572;2022-07-24T10:35:26;5.75;;;1.80;;
20229;SDS011;12195;55.790;37.572;2022-07-24T10:38:15;7.60;;;2.30;;
20229;SDS011;12195;55.790;37.572;2022-07-24T10:40:49;10.35;;;2.30;;
20229;SDS011;12195;55.790;37.572;2022-07-24T10:43:24;2.95;;;1.90;;
20229;SDS011;12195;55.790;37.572;2022-07-24T10:48:33;4.45;;;2.10;;
20229;SDS011;12195;55.790;37.572;2022-07-24T10:51:13;6.95;;;2.00;;
20229;SDS011;12195;55.790;37.572;2022-07-24T10:53:47;2.33;;;2.00;;
20229;SDS011;12195;55.790;37.572;2022-07-24T10:59:12;3.90;;;1.80;;
20229;SDS011;12195;55.790;37.572;2022-07-24T11:01:46;2.77;;;2.20;;
20229;SDS011;12195;55.790;37.572;2022-07-24T11:07:00;5.42;;;2.27;;
20229;SDS011;12195;55.790;37.572;2022-07-24T11:12:27;2.58;;;1.60;;
20229;SDS011;12195;55.790;37.572;2022-07-24T11:15:02;3.17;;;1.70;;
20229;SDS011;12195;55.790;37.572;2022-07-24T11:17:53;2.25;;;1.77;;
20229;SDS011;12195;55.790;37.572;2022-07-24T11:20:28;5.28;;;2.45;;
20229;SDS011;12195;55.790;37.572;2022-07-24T11:23:01;5.47;;;2.00;;
20229;SDS011;12195;55.790;37.572;2022-07-24T11:25:36;2.67;;;1.90;;
20229;SDS011;12195;55.790;37.572;2022-07-24T11:30:45;3.02;;;2.00;;
20229;SDS011;12195;55.790;37.572;2022-07-24T11:33:19;1.90;;;1.60;;
20229;SDS011;12195;55.790;37.572;2022-07-24T11:35:52;3.75;;;2.00;;
20229;SDS011;12195;55.790;37.572;2022-07-24T11:38:28;3.20;;;2.17;;
20229;SDS011;12195;55.790;37.572;2022-07-24T11:43:49;6.12;;;2.00;;
20229;SDS011;12195;55.790;37.572;2022-07-24T11:46:32;4.17;;;2.83;;
20229;SDS011;12195;55.790;37.572;2022-07-24T11:49:10;5.60;;;3.30;;
20229;SDS011;12195;55.790;37.572;2022-07-24T11:51:49;2.65;;;2.02;;
20229;SDS011;12195;55.790;37.572;2022-07-24T11:54:23;2.90;;;1.62;;
20229;SDS011;12195;55.790;37.572;2022-07-24T11:56:53;14.40;;;1.90;;
20229;SDS011;12195;55.790;37.572;2022-07-24T11:59:31;4.10;;;2.42;;
20229;SDS011;12195;55.790;37.572;2022-07-24T12:02:06;3.72;;;1.85;;
20229;SDS011;12195;55.790;37.572;2022-07-24T12:04:39;2.12;;;1.57;;
20229;SDS011;12195;55.790;37.572;2022-07-24T12:07:13;1.35;;;1.25;;
20229;SDS011;12195;55.790;37.572;2022-07-24T12:09:51;2.50;;;1.60;;
20229;SDS011;12195;55.790;37.572;2022-07-24T12:12:31;2.00;;;1.40;;
20229;SDS011;12195;55.790;37.572;2022-07-24T12:15:10;1.80;;;1.30;;
20229;SDS011;12195;55.790;37.572;2022-07-24T12:18:02;2.12;;;1.32;;
20229;SDS011;12195;55.790;37.572;2022-07-24T12:20:37;3.40;;;2.60;;
20229;SDS011;12195;55.790;37.572;2022-07-24T12:23:13;3.85;;;1.98;;
20229;SDS011;12195;55.790;37.572;2022-07-24T12:25:49;2.40;;;1.72;;
20229;SDS011;12195;55.790;37.572;2022-07-24T12:28:22;8.15;;;2.40;;
20229;SDS011;12195;55.790;37.572;2022-07-24T12:30:54;4.58;;;1.42;;
20229;SDS011;12195;55.790;37.572;2022-07-24T12:33:27;1.75;;;1.27;;
20229;SDS011;12195;55.790;37.572;2022-07-24T12:36:10;1.55;;;1.32;;
20229;SDS011;12195;55.790;37.572;2022-07-24T12:38:57;1.67;;;1.20;;
20229;SDS011;12195;55.790;37.572;2022-07-24T12:41:25;3.00;;;1.50;;
20229;SDS011;12195;55.790;37.572;2022-07-24T12:44:01;4.03;;;1.45;;
20229;SDS011;12195;55.790;37.572;2022-07-24T12:46:36;1.70;;;1.35;;
20229;SDS011;12195;55.790;37.572;2022-07-24T12:51:48;4.17;;;1.52;;
20229;SDS011;12195;55.790;37.572;2022-07-24T12:54:25;2.37;;;1.60;;
20229;SDS011;12195;55.790;37.572;2022-07-24T12:57:00;1.82;;;1.20;;
20229;SDS011;12195;55.790;37.572;2022-07-24T12:59:43;3.52;;;1.10;;
20229;SDS011;12195;55.790;37.572;2022-07-24T13:02:21;1.98;;;1.37;;
20229;SDS011;12195;55.790;37.572;2022-07-24T13:04:55;1.70;;;1.17;;
20229;SDS011;12195;55.790;37.572;2022-07-24T13:07:29;1.75;;;1.30;;
20229;SDS011;12195;55.790;37.572;2022-07-24T13:10:02;1.80;;;1.32;;
20229;SDS011;12195;55.790;37.572;2022-07-24T13:12:34;3.70;;;1.27;;
20229;SDS011;12195;55.790;37.572;2022-07-24T13:15:07;1.72;;;1.27;;
20229;SDS011;12195;55.790;37.572;2022-07-24T13:17:41;3.33;;;1.40;;
20229;SDS011;12195;55.790;37.572;2022-07-24T13:20:13;1.43;;;1.33;;
20229;SDS011;12195;55.790;37.572;2022-07-24T13:22:45;2.27;;;1.30;;
20229;SDS011;12195;55.790;37.572;2022-07-24T13:25:18;4.85;;;1.80;;
20229;SDS011;12195;55.790;37.572;2022-07-24T13:27:50;2.67;;;1.43;;
20229;SDS011;12195;55.790;37.572;2022-07-24T13:30:25;4.40;;;1.87;;
20229;SDS011;12195;55.790;37.572;2022-07-24T13:32:57;5.65;;;1.85;;
20229;SDS011;12195;55.790;37.572;2022-07-24T13:35:29;3.30;;;1.50;;
20229;SDS011;12195;55.790;37.572;2022-07-24T13:38:01;1.72;;;1.27;;
20229;SDS011;12195;55.790;37.572;2022-07-24T13:40:33;2.62;;;1.85;;
20229;SDS011;12195;55.790;37.572;2022-07-24T13:43:05;2.52;;;1.80;;
20229;SDS011;12195;55.790;37.572;2022-07-24T13:45:38;3.67;;;2.25;;
20229;SDS011;12195;55.790;37.572;2022-07-24T13:48:10;3.70;;;1.50;;
20229;SDS011;12195;55.790;37.572;2022-07-24T13:50:42;5.62;;;1.50;;
20229;SDS011;12195;55.790;37.572;2022-07-24T13:53:14;2.67;;;1.40;;
20229;SDS011;12195;55.790;37.572;2022-07-24T13:55:47;3.60;;;2.85;;
20229;SDS011;12195;55.790;37.572;2022-07-24T13:58:19;1.98;;;1.20;;
20229;SDS011;12195;55.790;37.572;2022-07-24T14:00:51;3.52;;;1.55;;
20229;SDS011;12195;55.790;37.572;2022-07-24T14:03:26;3.90;;;1.40;;
20229;SDS011;12195;55.790;37.572;2022-07-24T14:06:00;3.67;;;1.50;;
20229;SDS011;12195;55.790;37.572;2022-07-24T14:08:33;2.08;;;1.40;;
20229;SDS011;12195;55.790;37.572;2022-07-24T14:11:05;1.85;;;1.20;;
20229;SDS011;12195;55.790;37.572;2022-07-24T14:13:37;2.00;;;1.50;;
20229;SDS011;12195;55.790;37.572;2022-07-24T14:16:09;1.50;;;1.40;;
20229;SDS011;12195;55.790;37.572;2022-07-24T14:18:42;4.35;;;1.50;;
20229;SDS011;12195;55.790;37.572;2022-07-24T14:21:14;2.27;;;1.60;;
20229;SDS011;12195;55.790;37.572;2022-07-24T14:23:46;3.10;;;1.62;;
20229;SDS011;12195;55.790;37.572;2022-07-24T14:26:18;3.77;;;1.40;;
20229;SDS011;12195;55.790;37.572;2022-07-24T14:28:51;4.22;;;1.40;;
20229;SDS011;12195;55.790;37.572;2022-07-24T14:31:23;3.52;;;1.05;;
20229;SDS011;12195;55.790;37.572;2022-07-24T14:33:56;1.45;;;1.20;;
20229;SDS011;12195;55.790;37.572;2022-07-24T14:36:28;4.12;;;1.87;;
20229;SDS011;12195;55.790;37.572;2022-07-24T14:39:00;2.85;;;1.70;;
20229;SDS011;12195;55.790;37.572;2022-07-24T14:41:32;6.40;;;3.00;;
20229;SDS011;12195;55.790;37.572;2022-07-24T14:44:04;2.98;;;1.37;;
20229;SDS011;12195;55.790;37.572;2022-07-24T14:46:39;3.87;;;1.85;;
20229;SDS011;12195;55.790;37.572;2022-07-24T14:49:11;4.28;;;1.80;;
20229;SDS011;12195;55.790;37.572;2022-07-24T14:51:43;3.50;;;2.00;;
20229;SDS011;12195;55.790;37.572;2022-07-24T14:54:15;4.35;;;3.05;;
20229;SDS011;12195;55.790;37.572;2022-07-24T14:56:48;5.70;;;3.55;;
20229;SDS011;12195;55.790;37.572;2022-07-24T15:01:52;2.85;;;2.27;;
20229;SDS011;12195;55.790;37.572;2022-07-24T15:04:25;5.40;;;2.37;;
20229;SDS011;12195;55.790;37.572;2022-07-24T15:06:59;3.85;;;1.98;;
20229;SDS011;12195;55.790;37.572;2022-07-24T15:09:32;2.75;;;1.60;;
20229;SDS011;12195;55.790;37.572;2022-07-24T15:12:05;2.95;;;1.87;;
20229;SDS011;12195;55.790;37.572;2022-07-24T15:14:37;6.10;;;2.20;;
20229;SDS011;12195;55.790;37.572;2022-07-24T15:17:10;4.43;;;2.00;;
20229;SDS011;12195;55.790;37.572;2022-07-24T15:19:43;3.05;;;1.85;;
20229;SDS011;12195;55.790;37.572;2022-07-24T15:24:49;1.42;;;1.30;;
20229;SDS011;12195;55.790;37.572;2022-07-24T15:27:22;1.75;;;1.57;;
20229;SDS011;12195;55.790;37.572;2022-07-24T15:29:56;3.33;;;1.50;;
20229;SDS011;12195;55.790;37.572;2022-07-24T15:32:31;5.05;;;1.32;;
20229;SDS011;12195;55.790;37.572;2022-07-24T15:35:04;2.95;;;1.40;;
20229;SDS011;12195;55.790;37.572;2022-07-24T15:37:37;3.75;;;2.10;;